Ringkobing, Denmark
Current Conditions -  °F | °C
As of 3:50 PM on Friday 24 Oct 2014 (Local Time) from EKKA Reporting Station
Light Rain Light Rain  
Wind Chill: 54°   Ceiling: 700
Heat Index: 54°   Visibility: 4mi
Dew Point: 54°   Wind: 12mph
Humidity: 100%   Direction: 180°S
Pressure: 29.94"   Gusts: NA
Location:  56.09°N, 8.24°E
Report Text: EKKA 241350Z 18010KT 150V220 6000 -RA BKN007 12/12 Q1014
Loading
Personal Weather Stations






























Interactive Weather Map
Tropical Storm Tracking
New forecast layout! Learn more

10-Day Weather Forecast

Advertisements
Track Severe Weather on mobile